createdAt,value
2022-07-29T04:10:48.709Z,6.60
2022-07-29T04:13:51.850Z,6.03
2022-07-29T04:16:54.362Z,6.32
2022-07-29T04:19:57.426Z,6.03
2022-07-29T04:22:59.989Z,6.35
2022-07-29T04:26:02.802Z,6.35
2022-07-29T04:29:05.486Z,5.90
2022-07-29T04:32:08.274Z,5.97
2022-07-29T04:35:10.712Z,5.70
2022-07-29T04:38:15.789Z,5.93
2022-07-29T04:41:20.853Z,6.07
2022-07-29T04:44:39.662Z,5.85
2022-07-29T04:47:42.787Z,5.82
2022-07-29T04:50:45.374Z,6.68
2022-07-29T04:53:48.249Z,6.07
2022-07-29T04:56:50.694Z,5.90
2022-07-29T04:59:53.528Z,5.65
2022-07-29T05:02:56.056Z,7.00
2022-07-29T05:06:01.679Z,6.40
2022-07-29T05:09:04.219Z,5.97
2022-07-29T05:12:08.280Z,5.68
2022-07-29T05:15:11.161Z,5.78
2022-07-29T05:18:13.992Z,5.47
2022-07-29T05:21:16.485Z,5.80
2022-07-29T05:24:19.753Z,5.70
2022-07-29T05:27:22.561Z,5.90
2022-07-29T05:30:25.785Z,5.62
2022-07-29T05:33:35.606Z,5.78
2022-07-29T05:36:39.625Z,5.75
2022-07-29T05:39:48.782Z,5.35
2022-07-29T05:42:52.150Z,5.28
2022-07-29T05:45:54.839Z,5.03
2022-07-29T05:48:57.703Z,5.78
2022-07-29T05:52:00.276Z,5.47
2022-07-29T05:55:05.337Z,5.00
2022-07-29T05:58:08.020Z,5.45
2022-07-29T06:01:10.800Z,6.07
2022-07-29T06:04:14.212Z,5.62
2022-07-29T06:07:17.247Z,5.28
2022-07-29T06:10:20.265Z,5.40
2022-07-29T06:40:49.558Z,5.00
2022-07-29T06:43:55.198Z,5.20
2022-07-29T06:50:28.305Z,4.97
2022-07-29T07:16:17.047Z,5.35
2022-07-29T08:24:15.835Z,5.80
2022-07-29T08:42:12.895Z,4.90
2022-07-29T08:45:16.296Z,5.43
2022-07-29T08:48:21.549Z,5.55
2022-07-29T08:51:26.477Z,5.15
2022-07-29T08:54:30.238Z,5.00
2022-07-29T08:57:35.982Z,5.45
2022-07-29T09:00:44.546Z,5.40
2022-07-29T09:03:50.580Z,4.80
2022-07-29T09:06:58.092Z,5.00
2022-07-29T09:10:02.164Z,4.80
2022-07-29T09:13:04.840Z,5.32
2022-07-29T09:16:09.499Z,5.22
2022-07-29T09:19:31.067Z,5.28
2022-07-29T09:22:50.146Z,5.00
2022-07-29T09:25:52.784Z,4.90
2022-07-29T09:28:55.550Z,4.90
2022-07-29T09:31:58.152Z,4.70
2022-07-29T09:35:21.004Z,4.90
2022-07-29T09:38:23.517Z,4.87
2022-07-29T09:41:28.083Z,4.82
2022-07-29T09:44:50.180Z,4.90
2022-07-29T09:47:53.071Z,4.78
2022-07-29T09:50:55.964Z,5.03
2022-07-29T09:53:58.858Z,4.78
2022-07-29T09:57:01.484Z,5.03
2022-07-29T10:00:09.112Z,4.20
2022-07-29T10:03:16.640Z,4.47
2022-07-29T10:06:19.647Z,4.40
2022-07-29T10:36:25.120Z,3.80
2022-07-29T10:39:41.825Z,3.80
2022-07-29T10:45:57.448Z,3.70
2022-07-29T10:49:15.950Z,4.00
2022-07-29T10:52:20.530Z,4.10
2022-07-29T10:55:32.243Z,3.55
2022-07-29T10:58:35.224Z,4.12
2022-07-29T11:01:39.075Z,3.78
2022-07-29T11:04:44.872Z,3.95
2022-07-29T11:08:21.003Z,4.15
2022-07-29T11:11:29.766Z,4.40
2022-07-29T11:14:51.434Z,5.00
2022-07-29T11:17:54.669Z,4.82
2022-07-29T11:32:29.552Z,4.15
2022-07-29T11:35:38.297Z,3.70
2022-07-29T11:38:42.690Z,4.10
2022-07-29T11:41:45.777Z,3.90
2022-07-29T11:45:43.713Z,3.83
2022-07-29T11:48:44.430Z,3.85
2022-07-29T11:51:53.716Z,3.70
2022-07-29T11:55:00.903Z,3.87
2022-07-29T11:58:13.171Z,4.20
2022-07-29T12:01:18.444Z,4.00
2022-07-29T12:04:21.266Z,4.20
2022-07-29T12:07:35.159Z,4.05
2022-07-29T12:10:39.603Z,3.80
2022-07-29T12:13:42.083Z,3.60
2022-07-29T12:16:44.897Z,3.80
2022-07-29T12:19:47.406Z,3.87
2022-07-29T12:30:08.117Z,3.78
2022-07-29T12:36:57.154Z,3.83
2022-07-29T12:40:00.290Z,4.18
2022-07-29T12:43:11.887Z,3.80
2022-07-29T12:50:13.465Z,3.90
2022-07-29T12:53:17.660Z,4.15
2022-07-29T12:56:41.610Z,3.90
2022-07-29T12:59:43.389Z,4.57
2022-07-29T13:02:57.047Z,3.87
2022-07-29T13:05:59.906Z,3.75
2022-07-29T13:09:10.650Z,4.07
2022-07-29T13:12:14.872Z,4.07
2022-07-29T13:15:17.825Z,3.83
2022-07-29T13:18:29.041Z,3.92
2022-07-29T13:21:31.942Z,3.95
2022-07-29T13:24:50.631Z,3.40
2022-07-29T13:27:55.400Z,3.60
2022-07-29T13:30:57.996Z,3.60
2022-07-29T13:34:00.793Z,4.10
2022-07-29T13:37:03.543Z,3.53
2022-07-29T13:40:09.520Z,3.80
2022-07-29T13:43:13.006Z,3.87
2022-07-29T13:46:15.902Z,4.00
2022-07-29T13:49:18.515Z,4.03
2022-07-29T13:52:22.014Z,4.20
2022-07-29T13:55:25.198Z,3.75
2022-07-29T13:58:28.070Z,3.90
2022-07-29T14:01:31.842Z,3.90
2022-07-29T14:04:34.902Z,4.10
2022-07-29T14:07:39.684Z,4.10
2022-07-29T14:10:42.525Z,4.20
2022-07-29T14:13:45.350Z,3.90
2022-07-29T14:16:52.066Z,3.95
2022-07-29T14:20:00.767Z,4.20
2022-07-29T14:23:03.588Z,3.60
2022-07-29T14:26:08.753Z,4.25
2022-07-29T14:29:15.939Z,3.85
2022-07-29T14:32:18.583Z,3.87
2022-07-29T14:35:21.524Z,4.05
2022-07-29T14:38:24.715Z,3.83
2022-07-29T14:41:29.781Z,3.60
2022-07-29T14:44:32.487Z,4.12
2022-07-29T14:47:35.439Z,3.90
2022-07-29T14:50:38.507Z,4.07
2022-07-29T14:53:41.326Z,4.12
2022-07-29T14:56:46.377Z,3.90
2022-07-29T14:59:49.802Z,4.03
2022-07-29T15:03:01.833Z,4.03
2022-07-29T15:06:05.600Z,4.25
2022-07-29T15:09:08.866Z,3.90
2022-07-29T15:12:12.260Z,3.80
2022-07-29T15:15:14.712Z,3.83
2022-07-29T15:18:25.779Z,4.40
2022-07-29T15:21:28.699Z,4.35
